createdAt,value
2022-09-28T00:01:09.114Z,8.7
2022-09-28T00:11:09.960Z,8.7
2022-09-28T00:21:10.962Z,8.7
2022-09-28T00:41:12.051Z,8.5
2022-09-28T00:51:12.298Z,8.4
2022-09-28T01:21:14.141Z,8.1
2022-09-28T01:41:15.923Z,8.1
2022-09-28T03:01:21.446Z,8.1
2022-09-28T03:21:22.097Z,8.1
2022-09-28T03:31:22.523Z,8.1
2022-09-28T03:51:23.923Z,8
2022-09-28T04:01:24.936Z,8
2022-09-28T04:21:26.559Z,7.8
2022-09-28T04:31:27.433Z,7.9
2022-09-28T04:41:28.033Z,7.9
2022-09-28T04:51:28.142Z,7.9
2022-09-28T05:01:28.870Z,7.9
2022-09-28T05:11:28.961Z,7.9
2022-09-28T05:21:29.557Z,8.1
2022-09-28T05:31:29.876Z,8.1
2022-09-28T05:41:30.581Z,8.1
2022-09-28T05:51:31.618Z,8.1
2022-09-28T06:01:32.486Z,8.1
2022-09-28T06:11:33.349Z,8.1
2022-09-28T06:21:33.437Z,8.3
2022-09-28T06:31:33.701Z,8.3
2022-09-28T06:41:33.899Z,8.5
2022-09-28T06:51:34.384Z,8.5
2022-09-28T07:01:35.401Z,8.4
2022-09-28T07:11:36.395Z,8.4
2022-09-28T07:21:37.132Z,8.5
2022-09-28T07:31:38.102Z,8.5
2022-09-28T07:41:38.554Z,8.6
2022-09-28T07:51:39.168Z,8.6
2022-09-28T08:01:39.483Z,8.7
2022-09-28T08:11:40.149Z,8.9
2022-09-28T08:21:40.858Z,9.1
2022-09-28T08:31:41.668Z,9.1
2022-09-28T08:41:42.650Z,9.1
2022-09-28T08:51:43.153Z,9.3
2022-09-28T09:01:44.064Z,9.3
2022-09-28T09:11:44.872Z,9.4
2022-09-28T09:21:45.060Z,9.6
2022-09-28T09:31:45.844Z,9.6
2022-09-28T09:41:46.112Z,9.6
2022-09-28T09:51:46.183Z,9.7
2022-09-28T10:11:46.786Z,10.1
2022-09-28T10:21:47.789Z,10.4
2022-09-28T10:31:48.511Z,10.6
2022-09-28T10:41:49.499Z,10.8
2022-09-28T11:01:51.042Z,11
2022-09-28T11:11:51.264Z,11.5
2022-09-28T11:21:52.019Z,11.6
2022-09-28T11:41:53.620Z,11.5
2022-09-28T11:52:01.735Z,11.5
2022-09-28T12:02:10.722Z,11.5
2022-09-28T12:12:10.642Z,11.9
2022-09-28T12:22:11.116Z,12
2022-09-28T12:32:11.984Z,11.6
2022-09-28T12:42:13.018Z,11.9
2022-09-28T12:52:13.732Z,11.9
2022-09-28T13:02:14.744Z,11.8
2022-09-28T13:22:16.067Z,11.9
2022-09-28T13:52:18.161Z,12.3
2022-09-28T14:02:18.555Z,12.6
2022-09-28T14:52:20.375Z,12.6
2022-09-28T15:02:20.662Z,12.8
2022-09-28T15:12:21.250Z,12.5
2022-09-28T15:22:21.678Z,12.3
2022-09-28T15:32:22.246Z,12.4
2022-09-28T15:42:22.842Z,12.4
2022-09-28T15:52:23.411Z,12.2
2022-09-28T16:02:23.896Z,12
2022-09-28T16:12:24.632Z,11.9
2022-09-28T16:22:28.642Z,11.9
2022-09-28T16:32:24.900Z,11.9
2022-09-28T16:42:25.678Z,11.6
2022-09-28T16:52:25.876Z,11.5
2022-09-28T17:02:46.508Z,11.4
2022-09-28T17:12:27.302Z,11.2
2022-09-28T17:22:27.766Z,11.2
2022-09-28T17:32:28.002Z,11.2
2022-09-28T17:42:28.474Z,10.9
2022-09-28T17:52:29.212Z,10.8
2022-09-28T18:02:30.209Z,10.7
2022-09-28T18:12:30.603Z,10.5
2022-09-28T18:22:31.585Z,10.4
2022-09-28T18:32:31.849Z,10.3
2022-09-28T18:42:32.499Z,10.2
2022-09-28T18:52:33.154Z,10.1
2022-09-28T19:02:33.568Z,10
2022-09-28T19:12:33.595Z,9.9
2022-09-28T19:22:34.474Z,9.7
2022-09-28T19:32:35.347Z,9.6
2022-09-28T19:42:36.119Z,9.5
2022-09-28T19:52:37.087Z,9.5
2022-09-28T20:02:38.123Z,9.3
2022-09-28T20:12:38.796Z,9.3
2022-09-28T20:22:39.700Z,9.2
2022-09-28T20:32:40.408Z,9.1
2022-09-28T20:42:40.498Z,8.9
2022-09-28T20:52:41.201Z,8.8
2022-09-28T21:02:41.815Z,8.7
2022-09-28T21:12:42.273Z,8.6
2022-09-28T21:22:42.710Z,8.6
2022-09-28T21:32:43.666Z,8.6
2022-09-28T21:42:44.576Z,8.5
2022-09-28T21:52:44.841Z,8.4
2022-09-28T22:02:45.481Z,8.3
2022-09-28T22:12:45.749Z,8.2
2022-09-28T22:22:46.669Z,8.1
2022-09-28T22:32:47.632Z,8.1
2022-09-28T22:42:48.263Z,8
2022-09-28T22:52:49.181Z,7.9
2022-09-28T23:02:49.407Z,7.8
2022-09-28T23:12:49.697Z,7.8
2022-09-28T23:32:50.826Z,7.6
2022-09-28T23:42:51.808Z,7.6
2022-09-28T23:52:52.787Z,7.6
